Shin Puropan Maru — JG5508 — position and weather

sailwx.info

Track history (hours):
 
Tides and Currents Weather Stations Pressure Air Temp Water Temp Dewpoint Dewpoint Depression Visibility Wind Speed Wind Dir Waves Ship Positions

Shin Puropan Maru

Last reported at 2014-Dec-19 02:15 UTC. Time now 2014-Dec-19 03:15 UTC.
Position N 34°34' E 135°26'.

Length 66 m; draft 4.7 m.

Type: Ship (hazmat cat A). MMSI: 431100348.

Date/timePositionNaut miles runAvg speedWind from/ knotsBaromVisibWave heightAir tempDewpointWater temp
2014-Dec-19 02:15N 34°34' E 135°26'0 0.0
2014-Dec-19 01:33N 34°34' E 135°26'0 0.0
2014-Dec-19 00:33N 34°34' E 135°26'1 0.6
2014-Dec-18 23:33N 34°35' E 135°25'3 2.7
2014-Dec-18 22:33N 34°36' E 135°22'2 2.0
2014-Dec-18 21:33N 34°35' E 135°20'6 6.3
2014-Dec-18 20:33N 34°32' E 135°13'8 7.8
2014-Dec-18 19:33N 34°27' E 135°06'1411.8
2014-Dec-18 18:23N 34°15' E 134°59'1011.5
2014-Dec-18 17:33N 34°05' E 135°01'  
2014-Dec-15 12:28N 35°16' E 139°45'910.2
2014-Dec-15 11:33N 35°26' E 139°45'12 1.4
2014-Dec-15 03:04N 35°31' E 139°59'4 2.3
2014-Dec-15 01:14N 35°28' E 139°55'0 0.0
2014-Dec-15 00:32N 35°28' E 139°55'0 0.0
2014-Dec-14 22:32N 35°28' E 139°55'0 0.0
2014-Dec-14 21:05N 35°28' E 139°55'0 0.1
2014-Dec-14 20:32N 35°28' E 139°55'0 0.1
2014-Dec-14 19:29N 35°28' E 139°55'0 0.1
2014-Dec-14 18:29N 35°28' E 139°55'0 0.0
2014-Dec-14 17:29N 35°28' E 139°55'0 0.0
2014-Dec-14 16:32N 35°28' E 139°55'0 0.0
2014-Dec-14 15:17N 35°28' E 139°55'0 0.0
2014-Dec-14 14:32N 35°28' E 139°55'0 0.0
2014-Dec-14 13:29N 35°28' E 139°55'0 0.0
2014-Dec-14 12:32N 35°28' E 139°55'8 8.6
2014-Dec-14 11:33N 35°24' E 139°46'1211.6
2014-Dec-14 10:33N 35°12' E 139°47'24410.2
2014-Dec-13 10:33N 34°14' E 134°59'1312.4
2014-Dec-13 09:28N 34°26' E 135°07'1112.3
2014-Dec-13 08:33N 34°33' E 135°17'7 7.1
2014-Dec-13 07:33N 34°34' E 135°26'0 0.0
2014-Dec-13 04:32N 34°34' E 135°26'7 6.8
2014-Dec-13 03:34N 34°33' E 135°18'1212.4
2014-Dec-13 02:33N 34°24' E 135°07'1211.9
2014-Dec-13 01:33N 34°14' E 134°60'9 0.3
2014-Dec-11 12:33N 34°04' E 134°60'1312.9
2014-Dec-11 11:32N 34°17' E 134°58'1212.5
2014-Dec-11 10:33N 34°27' E 135°08'1312.7
2014-Dec-11 09:33N 34°35' E 135°20'5 4.5
2014-Dec-11 08:33N 34°34' E 135°26'0 0.0
2014-Dec-11 06:27N 34°34' E 135°26'3 3.4
2014-Dec-11 05:33N 34°36' E 135°23'1 1.0
2014-Dec-11 04:28N 34°35' E 135°23'3 0.7
2014-Dec-11 00:08N 34°33' E 135°26'1 1.5
2014-Dec-10 23:31N 34°33' E 135°25'5 4.6
2014-Dec-10 22:29N 34°32' E 135°20'0 0.0
2014-Dec-10 21:23N 34°32' E 135°20'0 0.1
2014-Dec-10 20:29N 34°32' E 135°20'0 0.0
2014-Dec-10 19:29N 34°32' E 135°20'0 0.0
2014-Dec-10 18:29N 34°32' E 135°20'0 0.0
2014-Dec-10 17:29N 34°32' E 135°20'0 0.0
2014-Dec-10 16:29N 34°32' E 135°20'0 0.0
2014-Dec-10 15:29N 34°32' E 135°20'0 0.0
2014-Dec-10 14:29N 34°32' E 135°20'0 0.0
2014-Dec-10 13:29N 34°32' E 135°20'0 0.0
2014-Dec-10 12:29N 34°32' E 135°20'0 0.1
2014-Dec-10 11:29N 34°32' E 135°20'0 0.0
2014-Dec-10 10:23N 34°32' E 135°20'0 0.0
2014-Dec-10 09:23N 34°32' E 135°20'0 0.0
2014-Dec-10 08:11N 34°32' E 135°20'0 0.1
2014-Dec-10 07:29N 34°32' E 135°20'6 6.1
2014-Dec-10 06:33N 34°36' E 135°24'3 0.9
2014-Dec-10 03:33N 34°34' E 135°26'1 0.8
2014-Dec-10 02:33N 34°34' E 135°25'0 0.0
2014-Dec-09 23:32N 34°34' E 135°25'2 0.8
2014-Dec-09 21:09N 34°34' E 135°23'0 0.1
2014-Dec-09 20:27N 34°34' E 135°23'0 0.0
2014-Dec-09 19:21N 34°34' E 135°23'0 0.0
2014-Dec-09 18:27N 34°34' E 135°23'0 0.0
2014-Dec-09 17:21N 34°34' E 135°23'0 0.0
2014-Dec-09 16:15N 34°34' E 135°23'0 0.0
2014-Dec-09 15:33N 34°34' E 135°23'0 0.0
2014-Dec-09 14:33N 34°34' E 135°23'0 0.0
2014-Dec-09 13:33N 34°34' E 135°23'0 0.0
2014-Dec-09 12:15N 34°34' E 135°23'0 0.1
2014-Dec-09 11:33N 34°34' E 135°23'0 0.0
2014-Dec-09 10:21N 34°34' E 135°23'1 1.8
2014-Dec-09 09:33N 34°34' E 135°21'4 3.5
2014-Dec-09 08:33N 34°35' E 135°25'1 0.2
2014-Dec-09 05:07N 34°34' E 135°26'3 5.8
2014-Dec-09 04:33N 34°36' E 135°22'1211.8
2014-Dec-09 03:33N 34°28' E 135°12'1311.8
2014-Dec-09 02:29N 34°19' E 135°01'  
Track history (hours):
 
Tides and Currents Weather Stations Pressure Air Temp Water Temp Dewpoint Dewpoint Depression Visibility Wind Speed Wind Dir Waves Ship Positions

Shin Puropan Maru

Last reported at 2014-Dec-19 02:15 UTC. Time now 2014-Dec-19 03:15 UTC.
Position N 34°34' E 135°26'.

Length 66 m; draft 4.7 m.

Type: Ship (hazmat cat A). MMSI: 431100348.

Date/timePositionNaut miles runAvg speedWind from/ knotsBaromVisibWave heightAir tempDewpointWater temp
2014-Dec-19 02:15N 34°34' E 135°26'0 0.0
2014-Dec-19 01:33N 34°34' E 135°26'0 0.0
2014-Dec-19 00:33N 34°34' E 135°26'1 0.6
2014-Dec-18 23:33N 34°35' E 135°25'3 2.7
2014-Dec-18 22:33N 34°36' E 135°22'2 2.0
2014-Dec-18 21:33N 34°35' E 135°20'6 6.3
2014-Dec-18 20:33N 34°32' E 135°13'8 7.8
2014-Dec-18 19:33N 34°27' E 135°06'1411.8
2014-Dec-18 18:23N 34°15' E 134°59'1011.5
2014-Dec-18 17:33N 34°05' E 135°01'  
2014-Dec-15 12:28N 35°16' E 139°45'910.2
2014-Dec-15 11:33N 35°26' E 139°45'12 1.4
2014-Dec-15 03:04N 35°31' E 139°59'4 2.3
2014-Dec-15 01:14N 35°28' E 139°55'0 0.0
2014-Dec-15 00:32N 35°28' E 139°55'0 0.0
2014-Dec-14 22:32N 35°28' E 139°55'0 0.0
2014-Dec-14 21:05N 35°28' E 139°55'0 0.1
2014-Dec-14 20:32N 35°28' E 139°55'0 0.1
2014-Dec-14 19:29N 35°28' E 139°55'0 0.1
2014-Dec-14 18:29N 35°28' E 139°55'0 0.0
2014-Dec-14 17:29N 35°28' E 139°55'0 0.0
2014-Dec-14 16:32N 35°28' E 139°55'0 0.0
2014-Dec-14 15:17N 35°28' E 139°55'0 0.0
2014-Dec-14 14:32N 35°28' E 139°55'0 0.0
2014-Dec-14 13:29N 35°28' E 139°55'0 0.0
2014-Dec-14 12:32N 35°28' E 139°55'8 8.6
2014-Dec-14 11:33N 35°24' E 139°46'1211.6
2014-Dec-14 10:33N 35°12' E 139°47'24410.2
2014-Dec-13 10:33N 34°14' E 134°59'1312.4
2014-Dec-13 09:28N 34°26' E 135°07'1112.3
2014-Dec-13 08:33N 34°33' E 135°17'7 7.1
2014-Dec-13 07:33N 34°34' E 135°26'0 0.0
2014-Dec-13 04:32N 34°34' E 135°26'7 6.8
2014-Dec-13 03:34N 34°33' E 135°18'1212.4
2014-Dec-13 02:33N 34°24' E 135°07'1211.9
2014-Dec-13 01:33N 34°14' E 134°60'9 0.3
2014-Dec-11 12:33N 34°04' E 134°60'1312.9
2014-Dec-11 11:32N 34°17' E 134°58'1212.5
2014-Dec-11 10:33N 34°27' E 135°08'1312.7
2014-Dec-11 09:33N 34°35' E 135°20'5 4.5
2014-Dec-11 08:33N 34°34' E 135°26'0 0.0
2014-Dec-11 06:27N 34°34' E 135°26'3 3.4
2014-Dec-11 05:33N 34°36' E 135°23'1 1.0
2014-Dec-11 04:28N 34°35' E 135°23'3 0.7
2014-Dec-11 00:08N 34°33' E 135°26'1 1.5
2014-Dec-10 23:31N 34°33' E 135°25'5 4.6
2014-Dec-10 22:29N 34°32' E 135°20'0 0.0
2014-Dec-10 21:23N 34°32' E 135°20'0 0.1
2014-Dec-10 20:29N 34°32' E 135°20'0 0.0
2014-Dec-10 19:29N 34°32' E 135°20'0 0.0
2014-Dec-10 18:29N 34°32' E 135°20'0 0.0
2014-Dec-10 17:29N 34°32' E 135°20'0 0.0
2014-Dec-10 16:29N 34°32' E 135°20'0 0.0
2014-Dec-10 15:29N 34°32' E 135°20'0 0.0
2014-Dec-10 14:29N 34°32' E 135°20'0 0.0
2014-Dec-10 13:29N 34°32' E 135°20'0 0.0
2014-Dec-10 12:29N 34°32' E 135°20'0 0.1
2014-Dec-10 11:29N 34°32' E 135°20'0 0.0
2014-Dec-10 10:23N 34°32' E 135°20'0 0.0
2014-Dec-10 09:23N 34°32' E 135°20'0 0.0
2014-Dec-10 08:11N 34°32' E 135°20'0 0.1
2014-Dec-10 07:29N 34°32' E 135°20'6 6.1
2014-Dec-10 06:33N 34°36' E 135°24'3 0.9
2014-Dec-10 03:33N 34°34' E 135°26'1 0.8
2014-Dec-10 02:33N 34°34' E 135°25'0 0.0
2014-Dec-09 23:32N 34°34' E 135°25'2 0.8
2014-Dec-09 21:09N 34°34' E 135°23'0 0.1
2014-Dec-09 20:27N 34°34' E 135°23'0 0.0
2014-Dec-09 19:21N 34°34' E 135°23'0 0.0
2014-Dec-09 18:27N 34°34' E 135°23'0 0.0
2014-Dec-09 17:21N 34°34' E 135°23'0 0.0
2014-Dec-09 16:15N 34°34' E 135°23'0 0.0
2014-Dec-09 15:33N 34°34' E 135°23'0 0.0
2014-Dec-09 14:33N 34°34' E 135°23'0 0.0
2014-Dec-09 13:33N 34°34' E 135°23'0 0.0
2014-Dec-09 12:15N 34°34' E 135°23'0 0.1
2014-Dec-09 11:33N 34°34' E 135°23'0 0.0
2014-Dec-09 10:21N 34°34' E 135°23'1 1.8
2014-Dec-09 09:33N 34°34' E 135°21'4 3.5
2014-Dec-09 08:33N 34°35' E 135°25'1 0.2
2014-Dec-09 05:07N 34°34' E 135°26'3 5.8
2014-Dec-09 04:33N 34°36' E 135°22'1211.8
2014-Dec-09 03:33N 34°28' E 135°12'1311.8
2014-Dec-09 02:29N 34°19' E 135°01'  

Dump ship's entire track history